createdAt,value
2018-12-25T00:00:50.282Z,100.0
2018-12-25T00:02:50.332Z,100.0
2018-12-25T00:04:49.758Z,100.0
2018-12-25T00:06:50.009Z,100.0
2018-12-25T00:08:49.999Z,100.0
2018-12-25T00:10:50.009Z,100.0
2018-12-25T00:12:49.994Z,99.8
2018-12-25T00:14:49.947Z,100.0
2018-12-25T00:16:50.246Z,99.4
2018-12-25T00:18:50.256Z,99.6
2018-12-25T00:20:50.216Z,99.5
2018-12-25T00:22:50.319Z,99.0
2018-12-25T00:24:50.303Z,99.2
2018-12-25T00:26:50.563Z,99.0
2018-12-25T00:28:50.580Z,98.9
2018-12-25T00:30:50.590Z,99.3
2018-12-25T00:32:50.589Z,99.0
2018-12-25T00:34:49.943Z,99.7
2018-12-25T00:36:50.234Z,99.4
2018-12-25T00:38:50.318Z,99.6
2018-12-25T00:40:50.330Z,99.4
2018-12-25T00:42:50.284Z,99.5
2018-12-25T00:44:50.348Z,99.7
2018-12-25T00:46:50.480Z,99.6
2018-12-25T00:48:50.471Z,99.6
2018-12-25T00:50:50.461Z,99.3
2018-12-25T00:52:50.353Z,99.1
2018-12-25T00:54:50.404Z,99.6
2018-12-25T00:56:50.709Z,98.6
2018-12-25T00:58:50.709Z,98.9
2018-12-25T01:00:50.727Z,98.7
2018-12-25T01:02:50.735Z,98.7
2018-12-25T01:04:50.013Z,98.6
2018-12-25T01:06:50.156Z,99.0
2018-12-25T01:08:50.118Z,99.1
2018-12-25T01:10:50.066Z,99.5
2018-12-25T01:12:50.023Z,98.9
2018-12-25T01:14:50.010Z,99.0
2018-12-25T01:16:50.141Z,99.1
2018-12-25T01:18:50.081Z,98.9
2018-12-25T01:20:50.092Z,99.0
2018-12-25T01:22:50.025Z,98.9
2018-12-25T01:24:50.022Z,98.7
2018-12-25T01:26:50.176Z,98.8
2018-12-25T01:28:50.148Z,98.8
2018-12-25T01:30:50.089Z,98.8
2018-12-25T01:32:50.061Z,99.1
2018-12-25T01:34:50.361Z,98.8
2018-12-25T01:36:50.582Z,99.0
2018-12-25T01:38:50.503Z,98.7
2018-12-25T01:40:50.441Z,99.1
2018-12-25T01:42:50.501Z,99.0
2018-12-25T01:44:50.445Z,99.2
2018-12-25T01:46:50.602Z,98.5
2018-12-25T01:48:50.667Z,98.4
2018-12-25T01:50:50.677Z,98.7
2018-12-25T01:52:50.654Z,99.1
2018-12-25T01:54:50.599Z,98.6
2018-12-25T01:56:49.812Z,99.0
2018-12-25T01:58:50.732Z,98.8
2018-12-25T02:00:49.815Z,98.9
2018-12-25T02:02:49.802Z,98.8
2018-12-25T02:04:50.108Z,98.3
2018-12-25T02:06:50.272Z,98.5
2018-12-25T02:08:50.233Z,97.5
2018-12-25T02:10:50.228Z,97.4
2018-12-25T02:12:50.284Z,97.9
2018-12-25T02:14:50.299Z,98.1
2018-12-25T02:16:50.596Z,98.5
2018-12-25T02:18:50.663Z,97.2
2018-12-25T02:20:50.733Z,97.2
2018-12-25T02:22:49.918Z,96.9
2018-12-25T02:24:50.062Z,97.0
2018-12-25T02:26:50.204Z,97.2
2018-12-25T02:28:50.201Z,97.0
2018-12-25T02:30:50.227Z,97.2
2018-12-25T02:32:50.233Z,96.6
2018-12-25T02:34:50.516Z,97.0
2018-12-25T02:36:50.667Z,96.7
2018-12-25T02:38:50.635Z,97.1
2018-12-25T02:40:50.655Z,97.1
2018-12-25T02:42:50.757Z,96.8
2018-12-25T02:44:50.830Z,97.0
2018-12-25T02:46:50.079Z,96.8
2018-12-25T02:48:50.111Z,97.0
2018-12-25T02:50:50.101Z,96.9
2018-12-25T02:52:50.081Z,97.0
2018-12-25T02:54:50.030Z,96.5
2018-12-25T02:56:50.251Z,96.5
2018-12-25T02:58:50.223Z,96.5
2018-12-25T03:00:50.205Z,95.9
2018-12-25T03:02:50.256Z,95.9
2018-12-25T03:04:50.540Z,95.9
2018-12-25T03:06:49.800Z,95.5
2018-12-25T03:08:50.060Z,95.7
2018-12-25T03:10:50.090Z,95.6
2018-12-25T03:12:50.102Z,95.6
2018-12-25T03:14:50.092Z,95.3
2018-12-25T03:16:50.262Z,96.3
2018-12-25T03:18:50.226Z,95.7
2018-12-25T03:20:50.208Z,95.8
2018-12-25T03:22:50.176Z,95.9
2018-12-25T03:24:50.193Z,95.6
2018-12-25T03:26:50.367Z,95.9
2018-12-25T03:28:50.318Z,95.5
2018-12-25T03:30:50.385Z,95.9
2018-12-25T03:32:50.508Z,95.9
2018-12-25T03:34:49.772Z,95.1
2018-12-25T03:36:49.962Z,95.3
2018-12-25T03:38:50.066Z,95.9
2018-12-25T03:40:49.989Z,96.0
2018-12-25T03:42:50.027Z,95.5
2018-12-25T03:44:50.085Z,95.6
2018-12-25T03:46:50.234Z,96.0
2018-12-25T03:48:50.169Z,95.7
2018-12-25T03:50:50.154Z,95.5
2018-12-25T03:52:50.189Z,95.7
2018-12-25T03:54:50.313Z,94.7
2018-12-25T03:56:50.500Z,95.1
2018-12-25T03:58:50.426Z,94.7
2018-12-25T04:00:50.432Z,95.1
2018-12-25T04:02:50.411Z,95.0
2018-12-25T04:04:50.655Z,94.5
2018-12-25T04:06:49.874Z,94.1
2018-12-25T04:08:49.936Z,94.8
2018-12-25T04:10:49.953Z,94.9
2018-12-25T04:12:49.974Z,95.1
2018-12-25T04:14:50.205Z,95.2
2018-12-25T04:16:50.332Z,95.2
2018-12-25T04:18:50.343Z,95.2
2018-12-25T04:20:50.381Z,95.0
2018-12-25T04:22:50.392Z,95.1
2018-12-25T04:24:50.406Z,95.3
2018-12-25T04:26:50.573Z,96.0
2018-12-25T04:28:50.659Z,94.7
2018-12-25T04:30:50.638Z,94.1
2018-12-25T04:32:50.784Z,94.1
2018-12-25T04:34:50.330Z,94.2
2018-12-25T04:36:50.473Z,94.3
2018-12-25T04:38:50.492Z,94.3
2018-12-25T04:40:50.520Z,95.0
2018-12-25T04:42:50.490Z,95.5
2018-12-25T04:44:50.438Z,95.0
2018-12-25T04:46:50.619Z,94.9
2018-12-25T04:48:50.568Z,94.8
2018-12-25T04:50:50.703Z,94.2
2018-12-25T04:52:50.668Z,94.0
2018-12-25T04:54:50.657Z,94.3
2018-12-25T04:56:49.797Z,94.5
2018-12-25T04:58:49.791Z,94.5
2018-12-25T05:00:49.905Z,94.5
2018-12-25T05:02:49.919Z,94.5
2018-12-25T05:04:50.248Z,95.1
2018-12-25T05:06:50.357Z,94.5
2018-12-25T05:08:50.440Z,95.9
2018-12-25T05:10:50.398Z,94.9
2018-12-25T05:12:50.437Z,94.5
2018-12-25T05:14:50.405Z,94.9
2018-12-25T05:16:50.676Z,94.5
2018-12-25T05:18:50.749Z,94.8
2018-12-25T05:20:49.762Z,94.3
2018-12-25T05:22:50.807Z,94.4
2018-12-25T05:24:49.774Z,94.5
2018-12-25T05:26:50.483Z,94.3
2018-12-25T05:28:50.451Z,94.2
2018-12-25T05:30:50.465Z,94.3
2018-12-25T05:32:50.420Z,95.3
2018-12-25T05:34:50.675Z,95.7
2018-12-25T05:36:50.010Z,95.3
2018-12-25T05:38:50.042Z,95.6
2018-12-25T05:40:50.060Z,95.4
2018-12-25T05:42:50.055Z,95.6
2018-12-25T05:44:50.005Z,95.5
2018-12-25T05:46:50.179Z,95.3
2018-12-25T05:48:50.209Z,95.8
2018-12-25T05:50:50.254Z,95.8
2018-12-25T05:52:50.234Z,96.4
2018-12-25T05:54:50.226Z,96.0
2018-12-25T05:56:50.398Z,95.6
2018-12-25T05:58:50.333Z,95.4
2018-12-25T06:00:50.330Z,95.7
2018-12-25T06:02:50.334Z,95.3
2018-12-25T06:04:50.669Z,95.5
2018-12-25T06:06:49.858Z,95.6
2018-12-25T06:08:49.893Z,96.5
2018-12-25T06:10:49.941Z,96.0
2018-12-25T06:12:49.943Z,95.8
2018-12-25T06:14:50.036Z,95.8
2018-12-25T06:16:50.267Z,96.2
2018-12-25T06:18:50.254Z,96.6
2018-12-25T06:20:55.718Z,95.6
2018-12-25T06:22:49.777Z,95.3
2018-12-25T06:24:49.778Z,95.1
2018-12-25T06:26:49.951Z,95.6
2018-12-25T06:28:49.980Z,95.1
2018-12-25T06:30:49.990Z,95.1
2018-12-25T06:32:49.958Z,95.0
2018-12-25T06:34:50.366Z,95.5
2018-12-25T06:36:50.295Z,95.2
2018-12-25T06:38:50.212Z,94.6
2018-12-25T06:40:50.181Z,94.7
2018-12-25T06:42:50.251Z,95.0
2018-12-25T06:44:50.263Z,95.1
2018-12-25T06:46:50.420Z,95.1
2018-12-25T06:48:50.544Z,95.3
2018-12-25T06:50:50.470Z,95.0
2018-12-25T06:52:50.555Z,95.3
2018-12-25T06:54:50.516Z,95.0
2018-12-25T06:56:50.673Z,95.1
2018-12-25T06:58:50.713Z,95.2
2018-12-25T07:00:50.640Z,95.2
2018-12-25T07:02:50.660Z,94.8
2018-12-25T07:04:50.129Z,95.4
2018-12-25T07:06:50.997Z,95.3
2018-12-25T07:08:49.938Z,95.6
2018-12-25T07:10:49.960Z,96.2
2018-12-25T07:12:49.966Z,96.1
2018-12-25T07:14:50.069Z,96.8
2018-12-25T07:16:50.277Z,96.8
2018-12-25T07:18:50.339Z,96.1
2018-12-25T07:20:50.262Z,96.1
2018-12-25T07:22:50.260Z,95.4
2018-12-25T07:24:50.202Z,94.7
2018-12-25T07:26:50.393Z,95.6
2018-12-25T07:28:50.421Z,95.7
2018-12-25T07:30:50.311Z,95.2
2018-12-25T07:32:50.369Z,95.4
2018-12-25T07:34:50.685Z,96.6
2018-12-25T07:36:49.864Z,97.6
2018-12-25T07:38:49.838Z,97.5
2018-12-25T07:40:49.849Z,97.1
2018-12-25T07:42:50.017Z,97.5
2018-12-25T07:44:49.978Z,97.1
2018-12-25T07:46:50.273Z,95.9
2018-12-25T07:48:50.288Z,94.9
2018-12-25T07:50:50.223Z,93.5
2018-12-25T07:52:50.226Z,94.0
2018-12-25T07:54:50.195Z,94.2
2018-12-25T07:56:50.327Z,93.2
2018-12-25T07:58:50.315Z,93.2
2018-12-25T08:00:50.218Z,93.7
2018-12-25T08:02:50.231Z,93.3
2018-12-25T08:04:50.400Z,93.4
2018-12-25T08:06:50.617Z,93.2
2018-12-25T08:08:50.672Z,92.9
2018-12-25T08:10:50.602Z,93.7
2018-12-25T08:12:50.625Z,93.1
2018-12-25T08:14:50.593Z,92.0
2018-12-25T08:16:50.745Z,91.6
2018-12-25T08:18:49.877Z,91.5
2018-12-25T08:20:49.833Z,91.2
2018-12-25T08:22:49.970Z,91.5
2018-12-25T08:24:49.938Z,92.4
2018-12-25T08:26:50.231Z,92.5
2018-12-25T08:28:50.357Z,92.4
2018-12-25T08:30:50.301Z,91.0
2018-12-25T08:32:50.248Z,91.1
2018-12-25T08:34:50.478Z,91.0
2018-12-25T08:36:50.642Z,90.9
2018-12-25T08:38:50.570Z,91.1
2018-12-25T08:40:50.704Z,90.7
2018-12-25T08:42:50.736Z,91.0
2018-12-25T08:44:50.736Z,90.1
2018-12-25T08:46:49.960Z,90.0
2018-12-25T08:48:49.916Z,89.8
2018-12-25T08:50:49.895Z,90.1
2018-12-25T08:52:49.890Z,90.2
2018-12-25T08:54:49.899Z,89.7
2018-12-25T08:56:50.065Z,89.9
2018-12-25T08:58:50.024Z,89.8
2018-12-25T09:00:49.966Z,89.5
2018-12-25T09:02:50.056Z,89.6
2018-12-25T09:04:50.539Z,89.7
2018-12-25T09:06:50.845Z,90.0
2018-12-25T09:08:49.857Z,89.7
2018-12-25T09:10:49.924Z,90.0
2018-12-25T09:12:50.056Z,89.3
2018-12-25T09:14:49.989Z,89.8
2018-12-25T09:16:50.195Z,87.3
2018-12-25T09:18:50.140Z,87.9
2018-12-25T09:20:50.129Z,87.2
2018-12-25T09:22:50.161Z,87.2
2018-12-25T09:24:50.171Z,88.2
2018-12-25T09:26:50.380Z,88.1
2018-12-25T09:28:50.305Z,87.8
2018-12-25T09:30:50.350Z,88.0
2018-12-25T09:32:50.304Z,88.7
2018-12-25T09:34:50.644Z,88.5
2018-12-25T09:36:49.821Z,88.7
2018-12-25T09:38:49.804Z,87.5
2018-12-25T09:40:49.884Z,86.9
2018-12-25T09:42:49.990Z,87.0
2018-12-25T09:44:50.016Z,87.1
2018-12-25T09:46:50.106Z,86.5
2018-12-25T09:48:50.016Z,86.3
2018-12-25T09:50:49.947Z,87.0
2018-12-25T09:52:49.922Z,86.2
2018-12-25T09:54:49.944Z,86.3
2018-12-25T09:56:50.079Z,86.1
2018-12-25T09:58:50.066Z,86.3
2018-12-25T10:00:50.070Z,83.9
2018-12-25T10:02:50.049Z,84.1
2018-12-25T10:04:50.418Z,84.0
2018-12-25T10:06:50.729Z,83.3
2018-12-25T10:08:49.774Z,83.5
2018-12-25T10:10:49.887Z,83.0
2018-12-25T10:12:49.869Z,83.3
2018-12-25T10:14:49.986Z,83.4
2018-12-25T10:16:50.381Z,83.0
2018-12-25T10:18:50.436Z,82.8
2018-12-25T10:20:50.402Z,83.1
2018-12-25T10:22:50.384Z,83.1
2018-12-25T10:24:51.807Z,82.1
2018-12-25T10:26:49.922Z,82.9
2018-12-25T10:28:49.893Z,82.5
2018-12-25T10:30:49.933Z,82.7
2018-12-25T10:32:50.010Z,82.8
2018-12-25T10:34:50.255Z,82.1
2018-12-25T10:36:50.448Z,82.1
2018-12-25T10:38:50.338Z,82.4
2018-12-25T10:40:50.374Z,82.1
2018-12-25T10:42:50.334Z,81.9
2018-12-25T10:44:50.270Z,81.9
2018-12-25T10:46:50.396Z,82.2
2018-12-25T10:48:50.387Z,82.1
2018-12-25T10:50:50.396Z,81.7
2018-12-25T10:52:50.299Z,82.0
2018-12-25T10:54:50.224Z,82.0
2018-12-25T10:56:50.426Z,81.6
2018-12-25T10:58:50.319Z,82.3
2018-12-25T11:00:50.239Z,82.2
2018-12-25T11:02:50.217Z,82.3
2018-12-25T11:04:50.488Z,82.0
2018-12-25T11:06:50.621Z,81.5
2018-12-25T11:08:50.621Z,81.9
2018-12-25T11:10:50.572Z,82.1
2018-12-25T11:12:50.458Z,82.3
2018-12-25T11:14:50.441Z,81.8
2018-12-25T11:16:49.776Z,80.6
2018-12-25T11:18:49.856Z,79.7
2018-12-25T11:20:49.903Z,79.7
2018-12-25T11:22:49.886Z,80.0
2018-12-25T11:24:49.956Z,80.1
2018-12-25T11:26:50.069Z,80.0
2018-12-25T11:28:50.040Z,79.7
2018-12-25T11:30:49.976Z,79.9
2018-12-25T11:32:49.993Z,79.2
2018-12-25T11:34:50.347Z,79.5
2018-12-25T11:36:50.634Z,79.1
2018-12-25T11:38:50.731Z,80.2
2018-12-25T11:40:50.740Z,80.0
2018-12-25T11:42:50.625Z,79.6
2018-12-25T11:44:50.587Z,79.7
2018-12-25T11:46:49.762Z,79.7
2018-12-25T11:48:49.803Z,80.3
2018-12-25T11:50:49.793Z,80.9
2018-12-25T11:52:49.790Z,80.1
2018-12-25T11:54:49.989Z,80.1
2018-12-25T11:56:50.109Z,80.6
2018-12-25T11:58:50.005Z,80.5
2018-12-25T12:00:49.962Z,80.2
2018-12-25T12:02:49.967Z,80.3
2018-12-25T12:04:50.254Z,80.0
2018-12-25T12:06:50.338Z,80.5
2018-12-25T12:08:50.340Z,80.1
2018-12-25T12:10:50.347Z,80.5
2018-12-25T12:12:50.316Z,80.2
2018-12-25T12:14:50.272Z,80.7
2018-12-25T12:16:50.444Z,80.3
2018-12-25T12:18:50.409Z,80.8
2018-12-25T12:20:50.457Z,80.6
2018-12-25T12:22:50.400Z,81.1
2018-12-25T12:24:50.380Z,80.1
2018-12-25T12:26:50.502Z,80.6
2018-12-25T12:28:50.500Z,80.7
2018-12-25T12:30:50.528Z,81.2
2018-12-25T12:32:50.443Z,79.9
2018-12-25T12:34:50.739Z,80.3
2018-12-25T12:36:49.930Z,79.8
2018-12-25T12:38:49.910Z,80.1
2018-12-25T12:40:49.938Z,81.5
2018-12-25T12:42:50.009Z,80.2
2018-12-25T12:44:49.979Z,80.2
2018-12-25T12:46:50.106Z,80.0
2018-12-25T12:48:50.030Z,80.7
2018-12-25T12:50:50.015Z,80.4
2018-12-25T12:52:49.905Z,79.7
2018-12-25T12:54:49.894Z,80.3
2018-12-25T12:56:50.030Z,80.0
2018-12-25T12:58:50.036Z,80.4
2018-12-25T13:00:50.023Z,80.3
2018-12-25T13:02:50.004Z,80.8
2018-12-25T13:04:50.251Z,79.8
2018-12-25T13:06:50.424Z,81.0
2018-12-25T13:08:50.368Z,81.5
2018-12-25T13:10:50.393Z,82.0
2018-12-25T13:12:50.339Z,81.5
2018-12-25T13:14:50.268Z,80.4
2018-12-25T13:16:50.405Z,80.4
2018-12-25T13:18:50.349Z,79.6
2018-12-25T13:20:50.324Z,80.0
2018-12-25T13:22:54.791Z,81.5
2018-12-25T13:24:49.826Z,80.5
2018-12-25T13:26:49.944Z,81.4
2018-12-25T13:28:49.955Z,80.9
2018-12-25T13:30:50.049Z,80.9
2018-12-25T13:32:50.016Z,80.3
2018-12-25T13:34:50.237Z,80.6
2018-12-25T13:36:50.364Z,80.5
2018-12-25T13:38:50.315Z,80.2
2018-12-25T13:40:50.311Z,80.0
2018-12-25T13:42:50.262Z,80.4
2018-12-25T13:44:50.227Z,81.9
2018-12-25T13:46:52.340Z,80.7
2018-12-25T13:48:50.321Z,81.1
2018-12-25T13:50:50.388Z,80.9
2018-12-25T13:52:50.356Z,81.0
2018-12-25T13:54:50.329Z,81.0
2018-12-25T13:56:50.531Z,81.3
2018-12-25T13:58:50.483Z,81.3
2018-12-25T14:00:50.363Z,81.9
2018-12-25T14:02:50.361Z,82.1
2018-12-25T14:04:50.654Z,81.8
2018-12-25T14:06:49.862Z,81.8
2018-12-25T14:08:49.798Z,81.5
2018-12-25T14:10:49.781Z,81.3
2018-12-25T14:12:49.767Z,81.7
2018-12-25T14:14:49.784Z,82.1
2018-12-25T14:16:49.971Z,81.7
2018-12-25T14:18:49.977Z,82.4
2018-12-25T14:20:50.036Z,82.1
2018-12-25T14:22:50.053Z,82.3
2018-12-25T14:24:49.995Z,82.4
2018-12-25T14:26:50.209Z,82.0
2018-12-25T14:28:50.131Z,81.5
2018-12-25T14:30:50.073Z,81.2
2018-12-25T14:32:50.045Z,81.9
2018-12-25T14:34:50.348Z,82.0
2018-12-25T14:36:50.422Z,82.3
2018-12-25T14:38:50.423Z,81.7
2018-12-25T14:40:50.400Z,82.0
2018-12-25T14:42:50.455Z,82.1
2018-12-25T14:44:50.457Z,82.0
2018-12-25T14:46:50.643Z,82.6
2018-12-25T14:48:50.771Z,82.3
2018-12-25T14:50:49.774Z,82.3
2018-12-25T14:52:49.802Z,82.5
2018-12-25T14:54:50.740Z,82.4
2018-12-25T14:56:49.930Z,82.6
2018-12-25T14:58:49.894Z,82.6
2018-12-25T15:00:49.861Z,83.3
2018-12-25T15:02:49.979Z,82.6
2018-12-25T15:04:50.264Z,83.0
2018-12-25T15:06:50.704Z,82.8
2018-12-25T15:08:50.727Z,83.2
2018-12-25T15:10:49.778Z,84.1
2018-12-25T15:12:49.773Z,82.9
2018-12-25T15:14:49.747Z,83.4
2018-12-25T15:16:49.964Z,83.5
2018-12-25T15:18:49.987Z,83.6
2018-12-25T15:20:49.978Z,84.0
2018-12-25T15:22:50.008Z,83.7
2018-12-25T15:24:49.962Z,83.7
2018-12-25T15:26:50.222Z,83.9
2018-12-25T15:28:50.181Z,84.3
2018-12-25T15:30:50.160Z,84.2
2018-12-25T15:32:50.206Z,84.7
2018-12-25T15:34:50.415Z,85.0
2018-12-25T15:36:50.580Z,85.8
2018-12-25T15:38:50.455Z,85.7
2018-12-25T15:40:50.375Z,85.7
2018-12-25T15:42:50.358Z,86.5
2018-12-25T15:44:50.353Z,86.1
2018-12-25T15:46:50.510Z,87.0
2018-12-25T15:48:50.490Z,86.7
2018-12-25T15:50:50.533Z,86.5
2018-12-25T15:52:50.553Z,86.8
2018-12-25T15:54:50.465Z,87.9
2018-12-25T15:56:50.568Z,86.8
2018-12-25T15:58:50.505Z,86.6
2018-12-25T16:00:50.550Z,87.0
2018-12-25T16:02:50.469Z,87.9
2018-12-25T16:04:50.764Z,87.3
2018-12-25T16:06:50.032Z,87.9
2018-12-25T16:08:49.992Z,87.8
2018-12-25T16:10:49.945Z,86.9
2018-12-25T16:12:49.939Z,86.8
2018-12-25T16:14:49.960Z,87.4
2018-12-25T16:16:50.105Z,86.4
2018-12-25T16:18:50.040Z,86.6
2018-12-25T16:20:50.071Z,86.5
2018-12-25T16:22:49.988Z,86.5
2018-12-25T16:24:49.947Z,85.9
2018-12-25T16:26:50.209Z,86.7
2018-12-25T16:28:50.154Z,86.7
2018-12-25T16:30:50.250Z,86.2
2018-12-25T16:32:50.224Z,85.8
2018-12-25T16:34:50.552Z,85.7
2018-12-25T16:36:49.772Z,86.1
2018-12-25T16:38:50.740Z,86.4
2018-12-25T16:40:50.690Z,86.5
2018-12-25T16:42:50.747Z,86.5
2018-12-25T16:44:50.629Z,86.4
2018-12-25T16:46:49.900Z,86.1
2018-12-25T16:48:49.974Z,86.3
2018-12-25T16:50:50.283Z,86.2
2018-12-25T16:52:50.320Z,85.7
2018-12-25T16:54:50.297Z,85.5
2018-12-25T16:56:50.479Z,85.7
2018-12-25T16:58:50.455Z,85.3
2018-12-25T17:00:50.559Z,85.6
2018-12-25T17:02:50.584Z,85.4
2018-12-25T17:04:49.999Z,85.1
2018-12-25T17:06:50.122Z,85.2
2018-12-25T17:08:50.021Z,85.4
2018-12-25T17:10:50.050Z,85.9
2018-12-25T17:12:50.025Z,85.2
2018-12-25T17:14:49.976Z,85.6
2018-12-25T17:16:50.251Z,85.8
2018-12-25T17:18:50.233Z,85.9
2018-12-25T17:20:50.198Z,84.7
2018-12-25T17:22:50.148Z,85.4
2018-12-25T17:24:50.094Z,84.9
2018-12-25T17:26:50.214Z,85.3
2018-12-25T17:28:50.198Z,85.3
2018-12-25T17:30:50.218Z,84.9
2018-12-25T17:32:50.190Z,85.2
2018-12-25T17:34:50.484Z,85.2
2018-12-25T17:36:50.684Z,85.5
2018-12-25T17:38:50.754Z,85.3
2018-12-25T17:40:50.746Z,85.2
2018-12-25T17:42:49.770Z,85.0
2018-12-25T17:44:49.813Z,85.2
2018-12-25T17:46:50.096Z,84.9
2018-12-25T17:48:50.045Z,84.9
2018-12-25T17:50:50.024Z,84.9
2018-12-25T17:52:49.949Z,85.4
2018-12-25T17:54:49.920Z,85.0
2018-12-25T17:56:50.027Z,85.2
2018-12-25T17:58:49.974Z,85.1
2018-12-25T18:00:49.994Z,85.1
2018-12-25T18:02:49.964Z,84.8
2018-12-25T18:04:50.295Z,85.1
2018-12-25T18:06:50.475Z,85.6
2018-12-25T18:08:50.401Z,85.3
2018-12-25T18:10:50.421Z,85.5
2018-12-25T18:12:50.495Z,86.5
2018-12-25T18:14:50.436Z,86.2
2018-12-25T18:16:50.606Z,86.6
2018-12-25T18:18:50.496Z,86.8
2018-12-25T18:20:50.517Z,86.9
2018-12-25T18:22:50.463Z,87.3
2018-12-25T18:24:50.404Z,88.3
2018-12-25T18:26:50.479Z,87.6
2018-12-25T18:28:50.389Z,87.6
2018-12-25T18:30:50.356Z,88.4
2018-12-25T18:32:50.307Z,88.4
2018-12-25T18:34:50.502Z,88.4
2018-12-25T18:36:50.668Z,89.0
2018-12-25T18:38:50.637Z,89.5
2018-12-25T18:40:50.645Z,89.4
2018-12-25T18:42:50.632Z,89.6
2018-12-25T18:44:50.614Z,89.6
2018-12-25T18:46:49.830Z,89.7
2018-12-25T18:48:49.799Z,90.3
2018-12-25T18:50:50.045Z,90.3
2018-12-25T18:52:50.105Z,90.8
2018-12-25T18:54:50.033Z,90.6
2018-12-25T18:56:50.186Z,90.5
2018-12-25T18:58:50.133Z,90.4
2018-12-25T19:00:50.115Z,91.1
2018-12-25T19:02:50.084Z,91.2
2018-12-25T19:04:50.337Z,91.6
2018-12-25T19:06:50.556Z,91.6
2018-12-25T19:08:50.542Z,91.4
2018-12-25T19:10:50.499Z,91.5
2018-12-25T19:12:50.493Z,91.3
2018-12-25T19:14:50.486Z,91.7
2018-12-25T19:16:51.963Z,91.4
2018-12-25T19:18:49.956Z,91.4
2018-12-25T19:20:49.963Z,91.3
2018-12-25T19:22:49.943Z,91.9
2018-12-25T19:24:49.911Z,91.7
2018-12-25T19:26:50.224Z,91.6
2018-12-25T19:28:50.172Z,91.6
2018-12-25T19:30:50.163Z,91.9
2018-12-25T19:32:50.142Z,91.5
2018-12-25T19:34:50.493Z,91.6
2018-12-25T19:36:49.756Z,91.7
2018-12-25T19:38:49.814Z,92.4
2018-12-25T19:40:49.862Z,92.1
2018-12-25T19:42:49.926Z,91.8
2018-12-25T19:44:49.941Z,91.9
2018-12-25T19:46:50.099Z,92.3
2018-12-25T19:48:50.095Z,92.0
2018-12-25T19:50:50.049Z,91.7
2018-12-25T19:52:49.987Z,91.9
2018-12-25T19:54:49.941Z,91.9
2018-12-25T19:56:50.129Z,91.7
2018-12-25T19:58:50.041Z,90.9
2018-12-25T20:00:49.955Z,91.0
2018-12-25T20:02:50.016Z,91.1
2018-12-25T20:04:50.188Z,91.6
2018-12-25T20:06:50.399Z,92.4
2018-12-25T20:08:50.312Z,92.0
2018-12-25T20:10:49.895Z,92.3
2018-12-25T20:12:49.982Z,92.5
2018-12-25T20:14:50.358Z,92.4
2018-12-25T20:16:50.497Z,92.6
2018-12-25T20:18:50.391Z,92.4
2018-12-25T20:20:50.390Z,93.2
2018-12-25T20:22:50.399Z,93.1
2018-12-25T20:24:53.278Z,93.5
2018-12-25T20:26:50.394Z,93.4
2018-12-25T20:28:50.518Z,93.7
2018-12-25T20:30:50.506Z,94.1
2018-12-25T20:32:50.480Z,94.1
2018-12-25T22:48:49.822Z,98.0
2018-12-25T22:50:51.295Z,97.6
2018-12-25T22:52:50.419Z,97.0
2018-12-25T22:54:50.308Z,96.7
2018-12-25T22:56:50.510Z,96.8
2018-12-25T22:58:50.520Z,94.6
2018-12-25T23:00:50.460Z,93.6
2018-12-25T23:02:50.447Z,92.2
2018-12-25T23:04:50.582Z,92.5
2018-12-25T23:06:49.769Z,92.4
2018-12-25T23:08:49.800Z,91.7
2018-12-25T23:10:49.832Z,92.0
2018-12-25T23:12:49.766Z,93.4
2018-12-25T23:14:49.774Z,93.0
2018-12-25T23:16:49.932Z,92.6
2018-12-25T23:18:49.840Z,93.5
2018-12-25T23:20:49.877Z,94.4
2018-12-25T23:22:49.973Z,92.2
2018-12-25T23:24:49.898Z,92.5
2018-12-25T23:26:50.094Z,96.2
2018-12-25T23:28:50.555Z,98.1
2018-12-25T23:30:50.550Z,98.1
2018-12-25T23:32:50.560Z,97.6
2018-12-25T23:34:50.039Z,98.0
2018-12-25T23:36:50.227Z,96.0
2018-12-25T23:38:50.229Z,96.0
2018-12-25T23:40:50.211Z,95.3
2018-12-25T23:42:50.270Z,96.5
2018-12-25T23:44:50.285Z,94.5
2018-12-25T23:46:50.419Z,96.9
2018-12-25T23:48:50.466Z,97.3
2018-12-25T23:50:50.442Z,98.6
2018-12-25T23:52:50.530Z,99.3
2018-12-25T23:54:50.534Z,99.0
2018-12-25T23:56:50.654Z,98.8
2018-12-25T23:58:50.827Z,98.9
